createdAt,value
2023-08-17T00:01:50.323Z,11.27
2023-08-17T00:04:21.922Z,11.05
2023-08-17T00:06:52.550Z,10.95
2023-08-17T00:09:23.399Z,11.65
2023-08-17T00:11:55.278Z,11.95
2023-08-17T00:14:26.171Z,9.75
2023-08-17T00:16:56.600Z,8.90
2023-08-17T00:19:27.500Z,11.68
2023-08-17T00:21:58.066Z,8.93
2023-08-17T00:24:29.073Z,9.18
2023-08-17T00:27:00.835Z,10.20
2023-08-17T00:29:31.996Z,8.45
2023-08-17T00:32:02.591Z,7.82
2023-08-17T00:34:33.553Z,7.68
2023-08-17T00:37:04.445Z,8.73
2023-08-17T00:39:35.247Z,8.93
2023-08-17T00:42:09.280Z,7.55
2023-08-17T00:44:40.188Z,9.20
2023-08-17T00:47:10.835Z,11.05
2023-08-17T00:49:42.109Z,16.45
2023-08-17T00:52:12.602Z,8.77
2023-08-17T00:54:44.072Z,10.02
2023-08-17T00:57:16.444Z,9.00
2023-08-17T01:00:03.067Z,7.88
2023-08-17T01:02:35.447Z,9.18
2023-08-17T01:05:07.496Z,9.48
2023-08-17T01:07:39.000Z,8.38
2023-08-17T01:10:12.828Z,10.10
2023-08-17T01:12:58.660Z,13.15
2023-08-17T01:15:37.617Z,11.98
2023-08-17T01:18:19.341Z,5.55
2023-08-17T01:20:51.476Z,4.47
2023-08-17T01:23:23.790Z,6.05
2023-08-17T01:25:55.237Z,7.18
2023-08-17T01:28:25.947Z,10.23
2023-08-17T01:31:02.779Z,9.20
2023-08-17T01:33:42.823Z,13.38
2023-08-17T01:36:27.556Z,10.88
2023-08-17T01:39:02.201Z,10.20
2023-08-17T01:41:35.740Z,10.27
2023-08-17T01:44:07.289Z,8.35
2023-08-17T01:46:38.143Z,9.35
2023-08-17T01:49:08.373Z,12.27
2023-08-17T01:51:39.206Z,8.10
2023-08-17T01:54:11.719Z,7.05
2023-08-17T01:56:42.532Z,8.05
2023-08-17T01:59:14.191Z,7.15
2023-08-17T02:01:45.314Z,9.80
2023-08-17T02:04:15.656Z,5.80
2023-08-17T02:06:46.317Z,5.60
2023-08-17T02:09:18.029Z,7.18
2023-08-17T02:11:48.852Z,5.63
2023-08-17T02:14:19.142Z,7.10
2023-08-17T02:16:50.293Z,7.05
2023-08-17T02:19:21.232Z,5.78
2023-08-17T02:21:53.206Z,6.68
2023-08-17T02:24:24.857Z,8.35
2023-08-17T02:26:57.998Z,9.10
2023-08-17T02:29:28.476Z,7.30
2023-08-17T02:31:59.517Z,8.13
2023-08-17T02:34:30.980Z,5.70
2023-08-17T02:37:02.052Z,7.03
2023-08-17T02:39:34.304Z,5.47
2023-08-17T02:42:05.916Z,7.70
2023-08-17T02:44:36.489Z,6.95
2023-08-17T02:47:08.082Z,8.35
2023-08-17T02:49:38.640Z,9.05
2023-08-17T02:52:09.393Z,8.90
2023-08-17T02:54:41.097Z,7.35
2023-08-17T02:57:12.015Z,7.68
2023-08-17T02:59:42.564Z,8.13
2023-08-17T03:02:13.543Z,5.20
2023-08-17T03:04:43.967Z,7.43
2023-08-17T03:07:15.905Z,5.97
2023-08-17T03:09:47.551Z,6.82
2023-08-17T03:12:18.319Z,7.30
2023-08-17T03:14:49.347Z,5.45
2023-08-17T03:17:20.231Z,6.18
2023-08-17T03:19:51.312Z,4.50
2023-08-17T03:22:22.197Z,4.93
2023-08-17T03:24:57.691Z,6.38
2023-08-17T03:27:29.963Z,9.38
2023-08-17T03:30:01.140Z,7.23
2023-08-17T03:32:32.455Z,4.57
2023-08-17T03:35:03.067Z,5.28
2023-08-17T03:37:34.040Z,4.95
2023-08-17T03:40:07.371Z,4.63
2023-08-17T03:42:38.246Z,5.45
2023-08-17T03:45:09.940Z,6.72
2023-08-17T03:47:40.752Z,7.80
2023-08-17T03:50:12.318Z,6.40
2023-08-17T03:52:43.209Z,9.98
2023-08-17T03:55:15.316Z,10.77
2023-08-17T03:57:46.040Z,8.43
2023-08-17T04:00:17.214Z,9.40
2023-08-17T04:02:48.225Z,8.70
2023-08-17T04:05:21.964Z,8.80
2023-08-17T04:07:52.820Z,8.77
2023-08-17T04:10:25.108Z,9.00
2023-08-17T04:12:55.944Z,10.40
2023-08-17T04:15:26.559Z,10.18
2023-08-17T04:17:58.279Z,10.07
2023-08-17T04:20:29.818Z,9.97
2023-08-17T04:23:00.744Z,10.15
2023-08-17T04:25:32.803Z,9.73
2023-08-17T04:28:06.034Z,12.30
2023-08-17T04:30:40.114Z,9.75
2023-08-17T04:33:12.360Z,8.95
2023-08-17T04:35:43.181Z,10.23
2023-08-17T04:38:14.192Z,8.00
2023-08-17T04:40:46.117Z,9.90
2023-08-17T04:43:19.106Z,9.70
2023-08-17T04:45:59.236Z,11.75
2023-08-17T04:48:31.337Z,9.27
2023-08-17T04:51:05.895Z,9.48
2023-08-17T04:53:36.853Z,9.77
2023-08-17T04:56:08.926Z,9.85
2023-08-17T04:58:39.869Z,11.18
2023-08-17T05:01:11.591Z,8.10
2023-08-17T05:03:43.247Z,7.78
2023-08-17T05:06:14.599Z,9.35
2023-08-17T05:08:45.350Z,7.80
2023-08-17T05:11:17.950Z,7.57
2023-08-17T05:13:48.976Z,5.75
2023-08-17T05:16:19.437Z,7.55
2023-08-17T05:18:50.228Z,6.95
2023-08-17T05:21:22.418Z,6.38
2023-08-17T05:23:54.509Z,5.20
2023-08-17T05:26:27.232Z,7.68
2023-08-17T05:28:58.439Z,8.73
2023-08-17T05:31:30.332Z,5.47
2023-08-17T05:34:01.526Z,10.50
2023-08-17T05:36:32.453Z,5.65
2023-08-17T05:39:10.764Z,6.38
2023-08-17T05:41:43.086Z,8.35
2023-08-17T05:44:16.442Z,8.27
2023-08-17T05:46:47.322Z,7.50
2023-08-17T05:49:18.447Z,5.03
2023-08-17T05:51:49.240Z,7.50
2023-08-17T05:54:20.277Z,6.60
2023-08-17T05:56:51.977Z,7.38
2023-08-17T05:59:22.908Z,4.95
2023-08-17T06:01:53.301Z,8.18
2023-08-17T06:04:24.160Z,4.82
2023-08-17T06:06:54.961Z,5.95
2023-08-17T06:09:25.724Z,4.60
2023-08-17T06:11:57.346Z,7.53
2023-08-17T06:14:46.268Z,4.57
2023-08-17T06:17:16.938Z,5.80
2023-08-17T06:19:47.308Z,5.15
2023-08-17T06:22:18.048Z,7.57
2023-08-17T06:24:48.748Z,4.18
2023-08-17T06:27:21.454Z,6.60
2023-08-17T06:29:52.950Z,5.13
2023-08-17T06:32:25.782Z,8.40
2023-08-17T06:34:57.294Z,4.32
2023-08-17T06:37:28.367Z,7.60
2023-08-17T06:39:58.972Z,12.05
2023-08-17T06:42:31.040Z,6.43
2023-08-17T06:45:01.834Z,7.07
2023-08-17T06:47:37.572Z,8.68
2023-08-17T06:50:09.666Z,5.13
2023-08-17T06:52:42.284Z,4.82
2023-08-17T06:55:19.230Z,7.78
2023-08-17T06:58:03.216Z,4.75
2023-08-17T07:00:37.364Z,7.47
2023-08-17T07:03:15.824Z,6.50
2023-08-17T07:05:53.112Z,8.18
2023-08-17T07:08:24.417Z,6.30
2023-08-17T07:10:59.394Z,4.78
2023-08-17T07:13:31.598Z,6.18
2023-08-17T07:16:02.452Z,9.90
2023-08-17T07:18:33.315Z,6.03
2023-08-17T07:21:07.627Z,5.00
2023-08-17T07:23:38.246Z,6.30
2023-08-17T07:26:10.227Z,5.43
2023-08-17T07:28:43.889Z,6.85
2023-08-17T07:31:16.309Z,4.78
2023-08-17T07:33:51.504Z,7.05
2023-08-17T07:36:31.276Z,3.88
2023-08-17T07:39:05.572Z,4.38
2023-08-17T07:41:41.851Z,4.57
2023-08-17T07:44:16.260Z,5.97
2023-08-17T07:46:49.470Z,7.50
2023-08-17T07:52:15.199Z,5.80
2023-08-17T08:12:18.805Z,4.82
2023-08-17T08:14:49.671Z,4.47
2023-08-17T08:17:20.919Z,3.30
2023-08-17T08:19:52.258Z,4.55
2023-08-17T08:22:22.675Z,4.15
2023-08-17T08:24:53.266Z,6.88
2023-08-17T08:27:25.840Z,5.07
2023-08-17T08:32:28.439Z,4.85
2023-08-17T08:34:59.327Z,3.83
2023-08-17T08:37:30.165Z,3.25
2023-08-17T08:40:01.050Z,3.50
2023-08-17T08:42:33.090Z,3.15
2023-08-17T08:45:03.649Z,3.83
2023-08-17T08:47:36.618Z,3.72
2023-08-17T08:50:08.976Z,5.88
2023-08-17T08:52:56.016Z,5.20
2023-08-17T08:55:29.553Z,4.88
2023-08-17T08:58:02.590Z,5.22
2023-08-17T09:00:35.131Z,5.93
2023-08-17T09:03:07.201Z,5.35
2023-08-17T09:05:38.449Z,5.07
2023-08-17T09:08:17.496Z,3.72
2023-08-17T09:10:48.950Z,5.10
2023-08-17T09:13:20.916Z,4.85
2023-08-17T09:15:51.871Z,4.57
2023-08-17T09:18:24.835Z,3.33
2023-08-17T09:20:56.958Z,6.63
2023-08-17T09:23:34.546Z,3.58
2023-08-17T09:26:24.841Z,9.05
2023-08-17T09:29:24.449Z,4.95
2023-08-17T09:31:55.131Z,3.53
2023-08-17T09:34:26.050Z,5.20
2023-08-17T09:36:56.749Z,2.90
2023-08-17T09:39:28.385Z,3.70
2023-08-17T09:42:03.739Z,3.45
2023-08-17T09:44:55.221Z,3.30
2023-08-17T09:47:26.121Z,3.40
2023-08-17T09:49:58.378Z,5.10
2023-08-17T09:52:29.733Z,5.80
2023-08-17T09:55:08.690Z,4.68
2023-08-17T09:57:39.905Z,3.20
2023-08-17T10:00:16.202Z,3.05
2023-08-17T10:02:52.959Z,4.28
2023-08-17T10:05:24.581Z,4.88
2023-08-17T10:07:59.740Z,3.75
2023-08-17T10:10:32.015Z,3.72
2023-08-17T10:13:11.066Z,4.10
2023-08-17T10:15:53.990Z,5.07
2023-08-17T10:18:36.042Z,8.18
2023-08-17T10:21:12.604Z,3.97
2023-08-17T10:23:43.554Z,3.75
2023-08-17T10:26:14.221Z,3.38
2023-08-17T10:28:46.024Z,3.33
2023-08-17T10:31:18.837Z,4.13
2023-08-17T10:33:52.602Z,6.95
2023-08-17T10:36:24.701Z,3.65
2023-08-17T10:39:20.704Z,5.00
2023-08-17T10:41:53.738Z,4.57
2023-08-17T10:47:26.505Z,3.55
2023-08-17T10:50:00.230Z,3.53
2023-08-17T10:52:34.017Z,3.75
2023-08-17T10:55:11.368Z,5.13
2023-08-17T10:57:44.266Z,3.20
2023-08-17T11:00:23.086Z,4.00
2023-08-17T11:03:00.854Z,3.22
2023-08-17T11:05:43.105Z,4.03
2023-08-17T11:08:30.244Z,6.28
2023-08-17T11:11:06.608Z,4.25
2023-08-17T11:13:39.976Z,6.10
2023-08-17T11:16:14.332Z,4.03
2023-08-17T11:18:53.045Z,4.40
2023-08-17T11:21:23.916Z,3.40
2023-08-17T11:23:59.719Z,4.82
2023-08-17T11:26:35.514Z,3.97
2023-08-17T11:29:07.814Z,4.53
2023-08-17T11:31:38.262Z,3.17
2023-08-17T11:34:10.518Z,5.32
2023-08-17T11:36:41.406Z,3.20
2023-08-17T11:39:17.274Z,4.45
2023-08-17T11:41:53.578Z,4.00
2023-08-17T11:44:24.804Z,2.95
2023-08-17T11:46:56.658Z,3.95
2023-08-17T11:49:28.778Z,4.33
2023-08-17T11:51:59.522Z,4.73
2023-08-17T11:54:30.450Z,4.68
2023-08-17T11:57:05.516Z,4.47
2023-08-17T11:59:41.603Z,4.47
2023-08-17T12:02:15.611Z,6.07
2023-08-17T12:04:48.886Z,3.17
2023-08-17T12:07:19.891Z,4.07
2023-08-17T12:09:51.814Z,3.85
2023-08-17T12:12:25.035Z,4.25
2023-08-17T12:14:56.317Z,5.35
2023-08-17T12:17:26.912Z,4.63
2023-08-17T12:20:01.065Z,3.38
2023-08-17T12:22:32.021Z,3.30
2023-08-17T12:25:02.811Z,4.22
2023-08-17T12:27:35.119Z,3.50
2023-08-17T12:32:37.119Z,3.53
2023-08-17T12:35:10.585Z,4.00
2023-08-17T12:37:41.028Z,4.30
2023-08-17T12:40:13.383Z,3.70
2023-08-17T12:42:44.924Z,5.78
2023-08-17T12:45:16.422Z,3.55
2023-08-17T12:47:47.032Z,4.82
2023-08-17T12:50:19.711Z,4.57
2023-08-17T12:52:50.199Z,4.00
2023-08-17T12:55:21.048Z,4.25
2023-08-17T12:57:52.000Z,4.35
2023-08-17T13:00:22.943Z,6.15
2023-08-17T13:02:57.659Z,4.00
2023-08-17T13:05:30.214Z,4.93
2023-08-17T13:08:10.390Z,4.57
2023-08-17T13:10:41.103Z,6.45
2023-08-17T13:13:11.452Z,8.07
2023-08-17T13:15:43.269Z,7.55
2023-08-17T13:18:13.800Z,5.75
2023-08-17T13:20:46.283Z,4.78
2023-08-17T13:23:16.616Z,5.20
2023-08-17T13:25:47.393Z,4.18
2023-08-17T13:28:17.886Z,4.00
2023-08-17T13:30:48.784Z,4.43
2023-08-17T13:33:19.360Z,4.40
2023-08-17T13:35:52.406Z,5.63
2023-08-17T13:40:53.656Z,3.92
2023-08-17T13:43:23.953Z,5.00
2023-08-17T13:45:54.652Z,3.80
2023-08-17T13:48:25.287Z,3.38
2023-08-17T13:50:57.728Z,5.80
2023-08-17T13:53:33.178Z,5.43
2023-08-17T13:56:07.350Z,10.07
2023-08-17T13:58:38.016Z,8.07
2023-08-17T14:01:09.133Z,4.13
2023-08-17T14:03:39.735Z,3.95
2023-08-17T14:06:11.919Z,4.47
2023-08-17T14:08:42.393Z,6.00
2023-08-17T14:11:13.058Z,6.20
2023-08-17T14:13:43.420Z,4.90
2023-08-17T14:16:14.265Z,6.13
2023-08-17T14:18:47.695Z,5.63
2023-08-17T14:21:19.918Z,5.22
2023-08-17T14:23:50.444Z,5.50
2023-08-17T14:26:21.438Z,7.57
2023-08-17T14:28:51.870Z,8.82
2023-08-17T14:31:23.000Z,4.35
2023-08-17T14:33:53.490Z,5.10
2023-08-17T14:36:25.767Z,4.93
2023-08-17T14:38:56.367Z,7.35
2023-08-17T14:41:32.700Z,6.28
2023-08-17T14:44:03.835Z,7.53
2023-08-17T14:46:36.154Z,5.32
2023-08-17T14:49:07.294Z,4.85
2023-08-17T14:51:43.855Z,6.50
2023-08-17T14:54:14.271Z,7.95
2023-08-17T14:56:45.009Z,6.20
2023-08-17T14:59:15.715Z,4.85
2023-08-17T15:01:47.435Z,7.03
2023-08-17T15:04:17.836Z,6.30
2023-08-17T15:06:50.168Z,5.20
2023-08-17T15:09:20.737Z,8.55
2023-08-17T15:11:54.191Z,4.22
2023-08-17T15:14:24.780Z,7.60
2023-08-17T15:16:55.557Z,3.10
2023-08-17T15:19:38.544Z,5.53
2023-08-17T15:22:15.770Z,7.72
2023-08-17T15:24:47.538Z,4.60
2023-08-17T15:27:18.713Z,4.03
2023-08-17T15:29:49.320Z,4.13
2023-08-17T15:32:20.249Z,8.00
2023-08-17T15:34:50.720Z,3.15
2023-08-17T15:37:25.252Z,4.43
2023-08-17T15:39:56.383Z,6.97
2023-08-17T15:42:27.669Z,4.82
2023-08-17T15:44:58.354Z,4.72
2023-08-17T15:47:29.946Z,5.68
2023-08-17T15:50:01.111Z,5.30
2023-08-17T15:52:33.760Z,6.70
2023-08-17T15:55:09.158Z,4.95
2023-08-17T15:57:41.763Z,6.13
2023-08-17T16:00:20.137Z,6.00
2023-08-17T16:02:51.441Z,5.15
2023-08-17T16:05:31.269Z,7.07
2023-08-17T16:08:03.913Z,5.75
2023-08-17T16:10:36.565Z,8.82
2023-08-17T16:13:07.681Z,7.13
2023-08-17T16:15:40.978Z,5.25
2023-08-17T16:18:11.862Z,6.43
2023-08-17T16:20:42.573Z,6.85
2023-08-17T16:23:14.778Z,7.45
2023-08-17T16:25:46.119Z,4.95
2023-08-17T16:28:16.951Z,7.95
2023-08-17T16:30:47.937Z,6.25
2023-08-17T16:33:28.191Z,7.25
2023-08-17T16:36:05.283Z,8.80
2023-08-17T16:38:39.311Z,9.77
2023-08-17T16:41:10.225Z,5.00
2023-08-17T16:43:41.270Z,5.50
2023-08-17T16:46:15.754Z,8.27
2023-08-17T16:48:46.949Z,7.60
2023-08-17T16:51:20.394Z,8.82
2023-08-17T16:54:03.762Z,5.80
2023-08-17T16:56:34.322Z,5.90
2023-08-17T16:59:09.276Z,6.55
2023-08-17T17:01:40.036Z,5.30
2023-08-17T17:04:10.950Z,6.95
2023-08-17T17:06:41.430Z,6.28
2023-08-17T17:09:13.835Z,8.85
2023-08-17T17:11:44.442Z,6.37
2023-08-17T17:14:15.196Z,6.65
2023-08-17T17:16:45.643Z,8.25
2023-08-17T17:19:19.250Z,7.43
2023-08-17T17:21:49.588Z,5.38
2023-08-17T17:24:22.247Z,4.95
2023-08-17T17:26:54.916Z,6.20
2023-08-17T17:29:25.740Z,5.80
2023-08-17T17:31:56.112Z,5.70
2023-08-17T17:34:27.449Z,5.50
2023-08-17T17:36:58.825Z,9.38
2023-08-17T17:39:32.419Z,7.65
2023-08-17T17:42:03.286Z,6.30
2023-08-17T17:44:39.092Z,6.53
2023-08-17T17:47:09.568Z,7.38
2023-08-17T17:49:40.273Z,6.30
2023-08-17T17:52:10.595Z,8.65
2023-08-17T17:54:43.028Z,12.55
2023-08-17T17:57:13.584Z,8.90
2023-08-17T17:59:46.338Z,6.15
2023-08-17T18:02:16.909Z,7.63
2023-08-17T18:04:48.218Z,5.28
2023-08-17T18:07:18.515Z,9.60
2023-08-17T18:09:50.791Z,7.15
2023-08-17T18:12:21.252Z,7.35
2023-08-17T18:14:52.020Z,6.47
2023-08-17T18:17:22.699Z,7.78
2023-08-17T18:19:53.723Z,8.20
2023-08-17T18:22:24.240Z,11.00
2023-08-17T18:24:56.449Z,8.85
2023-08-17T18:27:27.222Z,10.48
2023-08-17T18:29:58.375Z,12.75
2023-08-17T18:32:28.796Z,17.65
2023-08-17T18:34:59.802Z,15.95
2023-08-17T18:37:30.223Z,16.35
2023-08-17T18:40:02.296Z,16.17
2023-08-17T18:42:32.742Z,12.88
2023-08-17T18:45:03.518Z,12.18
2023-08-17T18:47:34.577Z,10.40
2023-08-17T18:50:06.491Z,8.63
2023-08-17T18:52:36.920Z,10.98
2023-08-17T18:55:13.007Z,11.32
2023-08-17T18:57:43.745Z,12.50
2023-08-17T19:00:15.647Z,8.55
2023-08-17T19:02:45.909Z,9.43
2023-08-17T19:05:18.217Z,11.63
2023-08-17T19:07:49.058Z,12.35
2023-08-17T19:10:21.361Z,12.27
2023-08-17T19:12:51.672Z,9.57
2023-08-17T19:15:22.957Z,10.15
2023-08-17T19:17:53.504Z,11.60
2023-08-17T19:20:24.456Z,11.27
2023-08-17T19:23:05.464Z,8.98
2023-08-17T19:25:37.829Z,9.20
2023-08-17T19:28:09.645Z,8.30
2023-08-17T19:30:45.201Z,8.75
2023-08-17T19:33:15.641Z,9.48
2023-08-17T19:35:46.660Z,10.25
2023-08-17T19:38:17.253Z,11.57
2023-08-17T19:40:50.909Z,11.68
2023-08-17T19:43:22.941Z,12.10
2023-08-17T19:45:54.021Z,16.05
2023-08-17T19:51:09.688Z,12.73
2023-08-17T19:53:41.240Z,9.85
2023-08-17T19:56:14.102Z,11.98
2023-08-17T19:58:44.921Z,12.60
2023-08-17T20:01:23.658Z,10.73
2023-08-17T20:03:55.038Z,14.02
2023-08-17T20:06:26.336Z,12.60
2023-08-17T20:08:56.951Z,11.25
2023-08-17T20:11:31.342Z,10.27
2023-08-17T20:14:04.461Z,9.00
2023-08-17T20:16:37.125Z,11.02
2023-08-17T20:19:09.036Z,13.18
2023-08-17T20:21:45.464Z,17.37
2023-08-17T20:24:16.298Z,13.02
2023-08-17T20:26:48.791Z,10.80
2023-08-17T20:29:19.513Z,10.63
2023-08-17T20:31:50.549Z,11.27
2023-08-17T20:34:21.284Z,11.63
2023-08-17T20:36:52.942Z,11.63
2023-08-17T20:39:29.094Z,10.65
2023-08-17T20:42:13.760Z,9.23
2023-08-17T20:44:45.130Z,12.02
2023-08-17T20:47:21.177Z,10.68
2023-08-17T20:49:53.233Z,11.30
2023-08-17T20:52:30.172Z,11.65
2023-08-17T20:55:03.388Z,10.55
2023-08-17T20:57:36.342Z,10.57
2023-08-17T21:00:14.759Z,13.43
2023-08-17T21:02:50.511Z,12.68
2023-08-17T21:05:21.405Z,12.48
2023-08-17T21:07:52.994Z,12.50
2023-08-17T21:10:33.865Z,11.20
2023-08-17T21:13:06.654Z,14.48
2023-08-17T21:15:37.316Z,12.02
2023-08-17T21:18:15.178Z,13.25
2023-08-17T21:20:52.393Z,12.05
2023-08-17T21:23:25.736Z,11.48
2023-08-17T21:25:59.893Z,14.27
2023-08-17T21:28:35.397Z,13.52
2023-08-17T21:31:06.443Z,14.65
2023-08-17T21:33:37.832Z,15.15
2023-08-17T21:36:11.294Z,11.07
2023-08-17T21:38:42.583Z,12.30
2023-08-17T21:41:13.766Z,14.68
2023-08-17T21:43:53.525Z,12.75
2023-08-17T21:46:25.708Z,16.70
2023-08-17T21:48:58.541Z,12.05
2023-08-17T21:51:39.242Z,16.53
2023-08-17T21:54:15.287Z,14.40
2023-08-17T21:56:50.600Z,14.85
2023-08-17T21:59:23.029Z,14.07
2023-08-17T22:01:55.050Z,14.32
2023-08-17T22:04:27.336Z,11.73
2023-08-17T22:06:58.596Z,13.57
2023-08-17T22:09:31.044Z,11.60
2023-08-17T22:12:04.446Z,16.80
2023-08-17T22:14:39.336Z,17.50
2023-08-17T22:17:11.003Z,14.32
2023-08-17T22:19:44.379Z,15.43
2023-08-17T22:22:16.314Z,35.30
2023-08-17T22:24:51.810Z,28.45
2023-08-17T22:27:37.248Z,25.75
2023-08-17T22:30:16.946Z,24.80
2023-08-17T22:32:50.805Z,16.58
2023-08-17T22:35:32.068Z,14.85
2023-08-17T22:38:12.261Z,15.02
2023-08-17T22:40:49.617Z,15.02
2023-08-17T22:43:21.147Z,14.18
2023-08-17T22:45:53.831Z,13.32
2023-08-17T22:48:24.368Z,13.00
2023-08-17T22:50:55.581Z,12.80
2023-08-17T22:53:26.379Z,14.18
2023-08-17T22:55:57.212Z,15.40
2023-08-17T22:58:27.889Z,16.23
2023-08-17T23:01:00.495Z,16.23
2023-08-17T23:03:30.995Z,15.55
2023-08-17T23:06:02.986Z,17.08
2023-08-17T23:08:33.557Z,20.35
2023-08-17T23:11:04.867Z,19.80
2023-08-17T23:13:35.388Z,17.90
2023-08-17T23:16:07.692Z,18.13
2023-08-17T23:18:38.215Z,19.30
2023-08-17T23:21:08.942Z,16.33
2023-08-17T23:23:39.193Z,15.52
2023-08-17T23:26:10.454Z,17.30
2023-08-17T23:28:40.983Z,18.77
2023-08-17T23:31:12.934Z,18.67
2023-08-17T23:33:43.213Z,23.92
2023-08-17T23:36:14.287Z,23.50
2023-08-17T23:38:44.858Z,25.38
2023-08-17T23:41:15.649Z,24.00
2023-08-17T23:43:45.862Z,22.60
2023-08-17T23:46:18.297Z,25.60
2023-08-17T23:48:48.664Z,23.70
2023-08-17T23:51:19.299Z,25.38
2023-08-17T23:53:49.633Z,22.55
2023-08-17T23:56:20.244Z,24.83
2023-08-17T23:58:50.921Z,21.35
